sensor_id;sensor_type;location;lat;lon;timestamp;P1;durP1;ratioP1;P2;durP2;ratioP2
8819;SDS011;4446;50.876;4.736;2023-05-10T00:00:23;6.50;;;4.00;;
8819;SDS011;4446;50.876;4.736;2023-05-10T00:02:50;8.60;;;4.07;;
8819;SDS011;4446;50.876;4.736;2023-05-10T00:05:17;7.70;;;4.05;;
8819;SDS011;4446;50.876;4.736;2023-05-10T00:07:45;7.63;;;4.30;;
8819;SDS011;4446;50.876;4.736;2023-05-10T00:10:13;7.13;;;4.50;;
8819;SDS011;4446;50.876;4.736;2023-05-10T00:12:40;10.98;;;5.00;;
8819;SDS011;4446;50.876;4.736;2023-05-10T00:15:07;7.70;;;4.90;;
8819;SDS011;4446;50.876;4.736;2023-05-10T00:17:35;8.18;;;5.07;;
8819;SDS011;4446;50.876;4.736;2023-05-10T00:20:02;7.53;;;4.38;;
8819;SDS011;4446;50.876;4.736;2023-05-10T00:22:30;8.15;;;4.70;;
8819;SDS011;4446;50.876;4.736;2023-05-10T00:24:57;8.20;;;4.65;;
8819;SDS011;4446;50.876;4.736;2023-05-10T00:27:26;8.20;;;4.93;;
8819;SDS011;4446;50.876;4.736;2023-05-10T00:29:53;8.90;;;5.22;;
8819;SDS011;4446;50.876;4.736;2023-05-10T00:32:19;10.68;;;5.07;;
8819;SDS011;4446;50.876;4.736;2023-05-10T00:34:46;7.60;;;5.13;;
8819;SDS011;4446;50.876;4.736;2023-05-10T00:37:13;7.90;;;5.00;;
8819;SDS011;4446;50.876;4.736;2023-05-10T00:39:41;9.50;;;5.55;;
8819;SDS011;4446;50.876;4.736;2023-05-10T00:42:07;7.60;;;5.15;;
8819;SDS011;4446;50.876;4.736;2023-05-10T00:44:36;9.35;;;5.13;;
8819;SDS011;4446;50.876;4.736;2023-05-10T00:47:03;10.35;;;5.25;;
8819;SDS011;4446;50.876;4.736;2023-05-10T00:49:30;14.00;;;6.90;;
8819;SDS011;4446;50.876;4.736;2023-05-10T00:51:57;10.25;;;4.93;;
8819;SDS011;4446;50.876;4.736;2023-05-10T00:54:24;11.25;;;5.28;;
8819;SDS011;4446;50.876;4.736;2023-05-10T00:56:51;8.68;;;5.13;;
8819;SDS011;4446;50.876;4.736;2023-05-10T00:59:18;9.82;;;5.50;;
8819;SDS011;4446;50.876;4.736;2023-05-10T01:01:47;8.90;;;5.05;;
8819;SDS011;4446;50.876;4.736;2023-05-10T01:04:14;10.25;;;5.50;;
8819;SDS011;4446;50.876;4.736;2023-05-10T01:06:41;9.55;;;5.88;;
8819;SDS011;4446;50.876;4.736;2023-05-10T01:09:09;11.45;;;5.75;;
8819;SDS011;4446;50.876;4.736;2023-05-10T01:11:37;9.65;;;5.35;;
8819;SDS011;4446;50.876;4.736;2023-05-10T01:14:05;9.68;;;5.47;;
8819;SDS011;4446;50.876;4.736;2023-05-10T01:16:33;9.43;;;5.93;;
8819;SDS011;4446;50.876;4.736;2023-05-10T01:19:05;9.80;;;5.90;;
8819;SDS011;4446;50.876;4.736;2023-05-10T01:21:40;8.45;;;5.45;;
8819;SDS011;4446;50.876;4.736;2023-05-10T01:24:23;12.38;;;6.03;;
8819;SDS011;4446;50.876;4.736;2023-05-10T01:30:33;8.15;;;4.93;;
8819;SDS011;4446;50.876;4.736;2023-05-10T01:33:11;7.65;;;5.18;;
8819;SDS011;4446;50.876;4.736;2023-05-10T01:35:45;8.70;;;5.40;;
8819;SDS011;4446;50.876;4.736;2023-05-10T01:38:19;10.13;;;5.78;;
8819;SDS011;4446;50.876;4.736;2023-05-10T01:40:52;9.88;;;6.43;;
8819;SDS011;4446;50.876;4.736;2023-05-10T01:43:28;9.65;;;5.65;;
8819;SDS011;4446;50.876;4.736;2023-05-10T01:45:59;11.65;;;6.70;;
8819;SDS011;4446;50.876;4.736;2023-05-10T01:48:36;10.40;;;6.00;;
8819;SDS011;4446;50.876;4.736;2023-05-10T01:51:08;15.73;;;5.95;;
8819;SDS011;4446;50.876;4.736;2023-05-10T01:53:36;9.90;;;5.90;;
8819;SDS011;4446;50.876;4.736;2023-05-10T01:56:05;12.57;;;6.70;;
8819;SDS011;4446;50.876;4.736;2023-05-10T01:58:34;11.93;;;6.38;;
8819;SDS011;4446;50.876;4.736;2023-05-10T02:01:07;9.75;;;6.07;;
8819;SDS011;4446;50.876;4.736;2023-05-10T02:03:37;14.38;;;6.50;;
8819;SDS011;4446;50.876;4.736;2023-05-10T02:06:06;11.63;;;6.68;;
8819;SDS011;4446;50.876;4.736;2023-05-10T02:08:36;13.63;;;6.47;;
8819;SDS011;4446;50.876;4.736;2023-05-10T02:11:04;14.20;;;7.60;;
8819;SDS011;4446;50.876;4.736;2023-05-10T02:13:31;10.15;;;6.53;;
8819;SDS011;4446;50.876;4.736;2023-05-10T02:16:00;12.70;;;6.63;;
8819;SDS011;4446;50.876;4.736;2023-05-10T02:18:29;16.90;;;6.57;;
8819;SDS011;4446;50.876;4.736;2023-05-10T02:20:59;13.05;;;6.43;;
8819;SDS011;4446;50.876;4.736;2023-05-10T02:23:28;10.35;;;6.35;;
8819;SDS011;4446;50.876;4.736;2023-05-10T02:25:56;12.63;;;6.28;;
8819;SDS011;4446;50.876;4.736;2023-05-10T02:28:26;14.32;;;7.15;;
8819;SDS011;4446;50.876;4.736;2023-05-10T02:30:54;10.70;;;6.20;;
8819;SDS011;4446;50.876;4.736;2023-05-10T02:33:22;12.90;;;7.38;;
8819;SDS011;4446;50.876;4.736;2023-05-10T02:35:50;12.40;;;7.10;;
8819;SDS011;4446;50.876;4.736;2023-05-10T02:38:20;12.82;;;6.70;;
8819;SDS011;4446;50.876;4.736;2023-05-10T02:40:48;12.35;;;7.07;;
8819;SDS011;4446;50.876;4.736;2023-05-10T02:43:15;12.35;;;6.25;;
8819;SDS011;4446;50.876;4.736;2023-05-10T02:45:45;10.98;;;6.45;;
8819;SDS011;4446;50.876;4.736;2023-05-10T02:48:14;11.40;;;6.13;;
8819;SDS011;4446;50.876;4.736;2023-05-10T02:50:42;12.25;;;6.55;;
8819;SDS011;4446;50.876;4.736;2023-05-10T02:53:13;11.43;;;6.72;;
8819;SDS011;4446;50.876;4.736;2023-05-10T02:55:46;12.07;;;5.80;;
8819;SDS011;4446;50.876;4.736;2023-05-10T02:58:17;13.93;;;7.03;;
8819;SDS011;4446;50.876;4.736;2023-05-10T03:00:45;11.73;;;6.50;;
8819;SDS011;4446;50.876;4.736;2023-05-10T03:03:13;11.90;;;6.68;;
8819;SDS011;4446;50.876;4.736;2023-05-10T03:05:40;10.82;;;6.55;;
8819;SDS011;4446;50.876;4.736;2023-05-10T03:08:06;12.35;;;6.57;;
8819;SDS011;4446;50.876;4.736;2023-05-10T03:10:39;12.38;;;6.28;;
8819;SDS011;4446;50.876;4.736;2023-05-10T03:13:13;13.07;;;7.53;;
8819;SDS011;4446;50.876;4.736;2023-05-10T03:15:47;11.85;;;6.95;;
8819;SDS011;4446;50.876;4.736;2023-05-10T03:18:23;15.32;;;7.30;;
8819;SDS011;4446;50.876;4.736;2023-05-10T03:20:57;10.35;;;6.55;;
8819;SDS011;4446;50.876;4.736;2023-05-10T03:23:29;10.30;;;6.57;;
8819;SDS011;4446;50.876;4.736;2023-05-10T03:26:07;11.75;;;7.10;;
8819;SDS011;4446;50.876;4.736;2023-05-10T03:28:36;12.98;;;6.53;;
8819;SDS011;4446;50.876;4.736;2023-05-10T03:31:04;11.90;;;6.47;;
8819;SDS011;4446;50.876;4.736;2023-05-10T03:33:32;13.30;;;6.15;;
8819;SDS011;4446;50.876;4.736;2023-05-10T03:35:59;12.95;;;6.63;;
8819;SDS011;4446;50.876;4.736;2023-05-10T03:38:26;10.38;;;6.32;;
8819;SDS011;4446;50.876;4.736;2023-05-10T03:40:53;14.02;;;6.80;;
8819;SDS011;4446;50.876;4.736;2023-05-10T03:43:20;16.60;;;7.13;;
8819;SDS011;4446;50.876;4.736;2023-05-10T03:45:49;12.63;;;5.90;;
8819;SDS011;4446;50.876;4.736;2023-05-10T03:48:16;11.02;;;5.97;;
8819;SDS011;4446;50.876;4.736;2023-05-10T03:50:43;11.20;;;6.20;;
8819;SDS011;4446;50.876;4.736;2023-05-10T03:53:10;8.43;;;5.20;;
8819;SDS011;4446;50.876;4.736;2023-05-10T03:55:37;10.43;;;5.43;;
8819;SDS011;4446;50.876;4.736;2023-05-10T03:58:04;10.30;;;5.72;;
8819;SDS011;4446;50.876;4.736;2023-05-10T04:00:31;10.52;;;5.50;;
8819;SDS011;4446;50.876;4.736;2023-05-10T04:02:59;8.38;;;5.10;;
8819;SDS011;4446;50.876;4.736;2023-05-10T04:05:26;10.48;;;5.00;;
8819;SDS011;4446;50.876;4.736;2023-05-10T04:07:53;10.45;;;6.05;;
8819;SDS011;4446;50.876;4.736;2023-05-10T04:10:20;11.88;;;5.75;;
8819;SDS011;4446;50.876;4.736;2023-05-10T04:12:47;14.57;;;6.38;;
8819;SDS011;4446;50.876;4.736;2023-05-10T04:15:14;12.45;;;5.63;;
8819;SDS011;4446;50.876;4.736;2023-05-10T04:17:41;13.82;;;6.97;;
8819;SDS011;4446;50.876;4.736;2023-05-10T04:20:10;17.42;;;8.07;;
8819;SDS011;4446;50.876;4.736;2023-05-10T04:22:38;14.85;;;6.95;;
8819;SDS011;4446;50.876;4.736;2023-05-10T04:25:06;16.58;;;7.40;;
8819;SDS011;4446;50.876;4.736;2023-05-10T04:27:33;19.63;;;7.15;;
8819;SDS011;4446;50.876;4.736;2023-05-10T04:30:00;16.50;;;7.22;;
8819;SDS011;4446;50.876;4.736;2023-05-10T04:32:28;17.52;;;8.35;;
8819;SDS011;4446;50.876;4.736;2023-05-10T04:34:55;17.50;;;7.10;;
8819;SDS011;4446;50.876;4.736;2023-05-10T04:37:23;15.60;;;8.55;;
8819;SDS011;4446;50.876;4.736;2023-05-10T04:39:50;16.40;;;8.07;;
8819;SDS011;4446;50.876;4.736;2023-05-10T04:42:17;17.23;;;8.70;;
8819;SDS011;4446;50.876;4.736;2023-05-10T04:44:44;16.23;;;8.50;;
8819;SDS011;4446;50.876;4.736;2023-05-10T04:47:11;15.73;;;7.78;;
8819;SDS011;4446;50.876;4.736;2023-05-10T04:49:38;18.33;;;8.85;;
8819;SDS011;4446;50.876;4.736;2023-05-10T04:52:05;19.17;;;8.57;;
8819;SDS011;4446;50.876;4.736;2023-05-10T04:54:34;18.38;;;8.20;;
8819;SDS011;4446;50.876;4.736;2023-05-10T04:57:01;19.60;;;8.48;;
8819;SDS011;4446;50.876;4.736;2023-05-10T04:59:28;19.95;;;8.95;;
8819;SDS011;4446;50.876;4.736;2023-05-10T05:01:55;20.80;;;8.80;;
8819;SDS011;4446;50.876;4.736;2023-05-10T05:04:22;18.73;;;8.27;;
8819;SDS011;4446;50.876;4.736;2023-05-10T05:06:49;20.20;;;8.35;;
8819;SDS011;4446;50.876;4.736;2023-05-10T05:09:16;20.83;;;8.23;;
8819;SDS011;4446;50.876;4.736;2023-05-10T05:11:44;18.90;;;8.75;;
8819;SDS011;4446;50.876;4.736;2023-05-10T05:14:11;17.65;;;8.20;;
8819;SDS011;4446;50.876;4.736;2023-05-10T05:16:38;19.40;;;9.13;;
8819;SDS011;4446;50.876;4.736;2023-05-10T05:19:05;20.45;;;9.77;;
8819;SDS011;4446;50.876;4.736;2023-05-10T05:21:32;20.05;;;9.15;;
8819;SDS011;4446;50.876;4.736;2023-05-10T05:23:59;22.02;;;9.50;;
8819;SDS011;4446;50.876;4.736;2023-05-10T05:26:27;20.35;;;8.70;;
8819;SDS011;4446;50.876;4.736;2023-05-10T05:28:56;20.50;;;8.43;;
8819;SDS011;4446;50.876;4.736;2023-05-10T05:31:23;22.85;;;9.68;;
8819;SDS011;4446;50.876;4.736;2023-05-10T05:33:50;20.80;;;10.27;;
8819;SDS011;4446;50.876;4.736;2023-05-10T05:36:17;25.25;;;9.98;;
8819;SDS011;4446;50.876;4.736;2023-05-10T05:38:44;26.40;;;9.70;;
8819;SDS011;4446;50.876;4.736;2023-05-10T05:41:11;22.52;;;9.90;;
8819;SDS011;4446;50.876;4.736;2023-05-10T05:43:37;21.75;;;9.68;;
8819;SDS011;4446;50.876;4.736;2023-05-10T05:46:06;21.63;;;9.40;;
8819;SDS011;4446;50.876;4.736;2023-05-10T05:48:33;26.98;;;10.30;;
8819;SDS011;4446;50.876;4.736;2023-05-10T05:51:00;22.55;;;9.35;;
8819;SDS011;4446;50.876;4.736;2023-05-10T05:53:27;24.85;;;10.27;;
8819;SDS011;4446;50.876;4.736;2023-05-10T05:55:54;21.23;;;9.57;;
8819;SDS011;4446;50.876;4.736;2023-05-10T05:58:23;19.38;;;9.07;;
8819;SDS011;4446;50.876;4.736;2023-05-10T06:00:51;20.48;;;9.82;;
8819;SDS011;4446;50.876;4.736;2023-05-10T06:03:19;18.08;;;8.75;;
8819;SDS011;4446;50.876;4.736;2023-05-10T06:05:46;23.08;;;10.52;;
8819;SDS011;4446;50.876;4.736;2023-05-10T06:08:13;22.27;;;9.05;;
8819;SDS011;4446;50.876;4.736;2023-05-10T06:10:41;22.40;;;9.13;;
8819;SDS011;4446;50.876;4.736;2023-05-10T06:13:08;23.02;;;9.50;;
8819;SDS011;4446;50.876;4.736;2023-05-10T06:15:35;23.05;;;9.90;;
8819;SDS011;4446;50.876;4.736;2023-05-10T06:18:02;22.02;;;8.90;;
8819;SDS011;4446;50.876;4.736;2023-05-10T06:20:30;21.00;;;8.93;;
8819;SDS011;4446;50.876;4.736;2023-05-10T06:22:57;21.00;;;9.63;;
8819;SDS011;4446;50.876;4.736;2023-05-10T06:25:24;21.27;;;9.27;;
8819;SDS011;4446;50.876;4.736;2023-05-10T06:27:51;19.13;;;8.50;;
8819;SDS011;4446;50.876;4.736;2023-05-10T06:30:22;20.80;;;9.82;;
8819;SDS011;4446;50.876;4.736;2023-05-10T06:32:52;22.85;;;9.73;;
8819;SDS011;4446;50.876;4.736;2023-05-10T06:35:20;21.63;;;9.35;;
8819;SDS011;4446;50.876;4.736;2023-05-10T06:37:49;20.85;;;9.48;;
8819;SDS011;4446;50.876;4.736;2023-05-10T06:40:16;20.60;;;9.43;;
8819;SDS011;4446;50.876;4.736;2023-05-10T06:42:44;25.25;;;10.02;;
8819;SDS011;4446;50.876;4.736;2023-05-10T06:45:11;23.00;;;10.15;;
8819;SDS011;4446;50.876;4.736;2023-05-10T06:47:39;23.95;;;9.57;;
8819;SDS011;4446;50.876;4.736;2023-05-10T06:50:06;19.50;;;9.30;;
8819;SDS011;4446;50.876;4.736;2023-05-10T06:52:34;20.42;;;9.80;;
8819;SDS011;4446;50.876;4.736;2023-05-10T06:55:03;21.92;;;9.40;;
8819;SDS011;4446;50.876;4.736;2023-05-10T06:57:31;18.88;;;9.07;;
8819;SDS011;4446;50.876;4.736;2023-05-10T06:59:58;14.98;;;7.97;;
8819;SDS011;4446;50.876;4.736;2023-05-10T07:02:25;15.82;;;7.90;;
8819;SDS011;4446;50.876;4.736;2023-05-10T07:04:52;12.30;;;5.78;;
8819;SDS011;4446;50.876;4.736;2023-05-10T07:07:19;9.25;;;4.78;;
8819;SDS011;4446;50.876;4.736;2023-05-10T07:09:46;7.18;;;3.75;;
8819;SDS011;4446;50.876;4.736;2023-05-10T07:12:16;7.32;;;3.50;;
8819;SDS011;4446;50.876;4.736;2023-05-10T07:14:43;4.97;;;3.20;;
8819;SDS011;4446;50.876;4.736;2023-05-10T07:17:10;5.53;;;3.17;;
8819;SDS011;4446;50.876;4.736;2023-05-10T07:19:37;4.43;;;2.85;;
8819;SDS011;4446;50.876;4.736;2023-05-10T07:22:04;4.85;;;3.60;;
8819;SDS011;4446;50.876;4.736;2023-05-10T07:24:31;5.18;;;3.38;;
8819;SDS011;4446;50.876;4.736;2023-05-10T07:26:58;6.72;;;3.92;;
8819;SDS011;4446;50.876;4.736;2023-05-10T07:29:27;6.65;;;3.85;;
8819;SDS011;4446;50.876;4.736;2023-05-10T07:31:54;5.53;;;3.53;;
8819;SDS011;4446;50.876;4.736;2023-05-10T07:34:21;5.15;;;3.20;;
8819;SDS011;4446;50.876;4.736;2023-05-10T07:36:48;4.00;;;3.05;;
8819;SDS011;4446;50.876;4.736;2023-05-10T07:39:15;4.47;;;3.00;;
8819;SDS011;4446;50.876;4.736;2023-05-10T07:41:42;4.65;;;2.88;;
8819;SDS011;4446;50.876;4.736;2023-05-10T07:44:09;5.22;;;3.20;;
8819;SDS011;4446;50.876;4.736;2023-05-10T07:46:38;3.58;;;2.60;;
8819;SDS011;4446;50.876;4.736;2023-05-10T07:49:05;4.40;;;2.50;;
8819;SDS011;4446;50.876;4.736;2023-05-10T07:51:32;3.60;;;2.67;;
8819;SDS011;4446;50.876;4.736;2023-05-10T07:53:59;3.47;;;2.72;;
8819;SDS011;4446;50.876;4.736;2023-05-10T07:56:28;4.32;;;2.50;;
8819;SDS011;4446;50.876;4.736;2023-05-10T07:58:57;3.40;;;2.30;;
8819;SDS011;4446;50.876;4.736;2023-05-10T08:01:24;3.88;;;2.30;;
8819;SDS011;4446;50.876;4.736;2023-05-10T08:03:53;3.83;;;2.28;;
8819;SDS011;4446;50.876;4.736;2023-05-10T08:06:20;4.80;;;2.78;;
8819;SDS011;4446;50.876;4.736;2023-05-10T08:08:48;6.43;;;3.65;;
8819;SDS011;4446;50.876;4.736;2023-05-10T08:11:15;5.65;;;3.60;;
8819;SDS011;4446;50.876;4.736;2023-05-10T08:13:43;6.30;;;3.60;;
8819;SDS011;4446;50.876;4.736;2023-05-10T08:16:10;6.30;;;3.72;;
8819;SDS011;4446;50.876;4.736;2023-05-10T08:18:37;8.73;;;4.30;;
8819;SDS011;4446;50.876;4.736;2023-05-10T08:21:05;8.27;;;5.07;;
8819;SDS011;4446;50.876;4.736;2023-05-10T08:23:33;8.45;;;4.63;;
8819;SDS011;4446;50.876;4.736;2023-05-10T08:26:00;7.35;;;4.50;;
8819;SDS011;4446;50.876;4.736;2023-05-10T08:28:27;7.82;;;4.20;;
8819;SDS011;4446;50.876;4.736;2023-05-10T08:30:54;8.95;;;4.80;;
8819;SDS011;4446;50.876;4.736;2023-05-10T08:33:21;8.32;;;4.35;;
8819;SDS011;4446;50.876;4.736;2023-05-10T08:35:48;9.70;;;5.10;;
8819;SDS011;4446;50.876;4.736;2023-05-10T08:38:17;9.80;;;4.20;;
8819;SDS011;4446;50.876;4.736;2023-05-10T08:40:44;9.40;;;5.20;;
8819;SDS011;4446;50.876;4.736;2023-05-10T08:43:12;8.00;;;4.82;;
8819;SDS011;4446;50.876;4.736;2023-05-10T08:45:41;7.97;;;4.05;;
8819;SDS011;4446;50.876;4.736;2023-05-10T08:48:10;8.73;;;4.82;;
8819;SDS011;4446;50.876;4.736;2023-05-10T08:50:38;8.82;;;5.13;;
8819;SDS011;4446;50.876;4.736;2023-05-10T08:53:06;7.75;;;4.93;;
8819;SDS011;4446;50.876;4.736;2023-05-10T08:55:38;8.45;;;4.05;;
8819;SDS011;4446;50.876;4.736;2023-05-10T08:58:08;7.68;;;3.97;;
8819;SDS011;4446;50.876;4.736;2023-05-10T09:00:35;10.20;;;4.53;;
8819;SDS011;4446;50.876;4.736;2023-05-10T09:03:04;8.65;;;3.97;;
8819;SDS011;4446;50.876;4.736;2023-05-10T09:05:32;8.80;;;4.28;;
8819;SDS011;4446;50.876;4.736;2023-05-10T09:07:59;7.15;;;4.40;;
8819;SDS011;4446;50.876;4.736;2023-05-10T09:10:26;9.32;;;4.10;;
8819;SDS011;4446;50.876;4.736;2023-05-10T09:12:57;6.95;;;3.97;;
8819;SDS011;4446;50.876;4.736;2023-05-10T09:15:25;6.15;;;4.32;;
8819;SDS011;4446;50.876;4.736;2023-05-10T09:17:52;7.15;;;3.63;;
8819;SDS011;4446;50.876;4.736;2023-05-10T09:20:20;7.13;;;4.53;;
8819;SDS011;4446;50.876;4.736;2023-05-10T09:22:47;8.10;;;4.90;;
8819;SDS011;4446;50.876;4.736;2023-05-10T09:25:15;7.72;;;3.80;;
8819;SDS011;4446;50.876;4.736;2023-05-10T09:27:44;5.47;;;3.50;;
8819;SDS011;4446;50.876;4.736;2023-05-10T09:30:16;6.07;;;3.60;;
8819;SDS011;4446;50.876;4.736;2023-05-10T09:32:49;5.05;;;3.25;;
8819;SDS011;4446;50.876;4.736;2023-05-10T09:35:17;5.25;;;3.08;;
8819;SDS011;4446;50.876;4.736;2023-05-10T09:37:45;4.28;;;3.00;;
8819;SDS011;4446;50.876;4.736;2023-05-10T09:40:14;7.07;;;3.50;;
8819;SDS011;4446;50.876;4.736;2023-05-10T09:42:50;5.30;;;3.05;;
8819;SDS011;4446;50.876;4.736;2023-05-10T09:45:19;3.50;;;2.65;;
8819;SDS011;4446;50.876;4.736;2023-05-10T09:47:47;4.90;;;2.97;;
8819;SDS011;4446;50.876;4.736;2023-05-10T09:50:14;4.47;;;2.75;;
8819;SDS011;4446;50.876;4.736;2023-05-10T09:52:48;3.58;;;2.30;;
8819;SDS011;4446;50.876;4.736;2023-05-10T09:55:16;4.40;;;2.50;;
8819;SDS011;4446;50.876;4.736;2023-05-10T09:57:45;4.60;;;2.85;;
8819;SDS011;4446;50.876;4.736;2023-05-10T10:00:16;4.15;;;2.42;;
8819;SDS011;4446;50.876;4.736;2023-05-10T10:02:46;4.22;;;2.60;;
8819;SDS011;4446;50.876;4.736;2023-05-10T10:05:14;3.90;;;2.20;;
8819;SDS011;4446;50.876;4.736;2023-05-10T10:07:41;3.17;;;2.45;;
8819;SDS011;4446;50.876;4.736;2023-05-10T10:10:09;3.22;;;2.00;;
8819;SDS011;4446;50.876;4.736;2023-05-10T10:12:38;3.35;;;2.10;;
8819;SDS011;4446;50.876;4.736;2023-05-10T10:15:07;2.78;;;1.98;;
8819;SDS011;4446;50.876;4.736;2023-05-10T10:17:36;3.00;;;2.13;;
8819;SDS011;4446;50.876;4.736;2023-05-10T10:20:05;2.88;;;1.98;;
8819;SDS011;4446;50.876;4.736;2023-05-10T10:22:33;3.72;;;2.00;;
8819;SDS011;4446;50.876;4.736;2023-05-10T10:25:00;2.95;;;2.13;;
8819;SDS011;4446;50.876;4.736;2023-05-10T10:27:32;2.83;;;1.83;;
8819;SDS011;4446;50.876;4.736;2023-05-10T10:30:09;1.67;;;1.58;;
8819;SDS011;4446;50.876;4.736;2023-05-10T10:35:39;2.75;;;1.95;;
8819;SDS011;4446;50.876;4.736;2023-05-10T10:38:07;2.00;;;1.67;;
8819;SDS011;4446;50.876;4.736;2023-05-10T10:40:34;2.13;;;1.60;;
8819;SDS011;4446;50.876;4.736;2023-05-10T10:43:21;2.85;;;2.08;;
8819;SDS011;4446;50.876;4.736;2023-05-10T10:48:37;2.22;;;1.98;;
8819;SDS011;4446;50.876;4.736;2023-05-10T10:51:04;1.70;;;1.58;;
8819;SDS011;4446;50.876;4.736;2023-05-10T10:53:31;1.90;;;1.60;;
8819;SDS011;4446;50.876;4.736;2023-05-10T10:56:04;1.88;;;1.70;;
8819;SDS011;4446;50.876;4.736;2023-05-10T10:58:34;2.60;;;1.73;;
8819;SDS011;4446;50.876;4.736;2023-05-10T11:01:09;1.83;;;1.50;;
8819;SDS011;4446;50.876;4.736;2023-05-10T11:03:39;1.90;;;1.70;;
8819;SDS011;4446;50.876;4.736;2023-05-10T11:06:06;1.95;;;1.50;;
8819;SDS011;4446;50.876;4.736;2023-05-10T11:08:34;1.70;;;1.50;;
8819;SDS011;4446;50.876;4.736;2023-05-10T11:11:08;1.73;;;1.60;;
8819;SDS011;4446;50.876;4.736;2023-05-10T11:13:39;1.83;;;1.30;;
8819;SDS011;4446;50.876;4.736;2023-05-10T11:16:15;2.63;;;1.50;;
8819;SDS011;4446;50.876;4.736;2023-05-10T11:18:59;1.30;;;1.20;;
8819;SDS011;4446;50.876;4.736;2023-05-10T11:21:28;1.35;;;1.25;;
8819;SDS011;4446;50.876;4.736;2023-05-10T11:23:56;1.52;;;1.23;;
8819;SDS011;4446;50.876;4.736;2023-05-10T11:26:25;1.63;;;1.27;;
8819;SDS011;4446;50.876;4.736;2023-05-10T11:28:56;1.45;;;1.35;;
8819;SDS011;4446;50.876;4.736;2023-05-10T11:31:25;1.60;;;1.42;;
8819;SDS011;4446;50.876;4.736;2023-05-10T11:33:53;1.17;;;1.08;;
8819;SDS011;4446;50.876;4.736;2023-05-10T11:36:23;1.23;;;1.13;;
8819;SDS011;4446;50.876;4.736;2023-05-10T11:38:51;1.58;;;1.48;;
8819;SDS011;4446;50.876;4.736;2023-05-10T11:41:19;1.30;;;1.20;;
8819;SDS011;4446;50.876;4.736;2023-05-10T11:43:49;1.40;;;1.30;;
8819;SDS011;4446;50.876;4.736;2023-05-10T11:46:18;2.53;;;1.30;;
8819;SDS011;4446;50.876;4.736;2023-05-10T11:48:46;1.15;;;1.08;;
8819;SDS011;4446;50.876;4.736;2023-05-10T11:51:19;2.65;;;1.23;;
8819;SDS011;4446;50.876;4.736;2023-05-10T11:53:48;1.25;;;1.15;;
8819;SDS011;4446;50.876;4.736;2023-05-10T11:56:16;1.20;;;1.10;;
8819;SDS011;4446;50.876;4.736;2023-05-10T11:58:43;1.35;;;1.25;;
8819;SDS011;4446;50.876;4.736;2023-05-10T12:01:12;1.55;;;1.45;;
8819;SDS011;4446;50.876;4.736;2023-05-10T12:03:39;1.40;;;1.30;;
8819;SDS011;4446;50.876;4.736;2023-05-10T12:06:06;1.63;;;1.50;;
8819;SDS011;4446;50.876;4.736;2023-05-10T12:08:34;1.42;;;1.33;;
8819;SDS011;4446;50.876;4.736;2023-05-10T12:11:06;1.80;;;1.70;;
8819;SDS011;4446;50.876;4.736;2023-05-10T12:13:37;2.25;;;1.48;;
8819;SDS011;4446;50.876;4.736;2023-05-10T12:16:15;2.03;;;1.70;;
8819;SDS011;4446;50.876;4.736;2023-05-10T12:18:44;1.77;;;1.67;;
8819;SDS011;4446;50.876;4.736;2023-05-10T12:21:14;1.60;;;1.50;;
8819;SDS011;4446;50.876;4.736;2023-05-10T12:23:41;1.70;;;1.60;;
8819;SDS011;4446;50.876;4.736;2023-05-10T12:26:12;1.90;;;1.77;;
8819;SDS011;4446;50.876;4.736;2023-05-10T12:28:40;1.60;;;1.50;;
8819;SDS011;4446;50.876;4.736;2023-05-10T12:31:07;1.98;;;1.67;;
8819;SDS011;4446;50.876;4.736;2023-05-10T12:33:37;1.98;;;1.88;;
8819;SDS011;4446;50.876;4.736;2023-05-10T12:36:06;2.45;;;1.80;;
8819;SDS011;4446;50.876;4.736;2023-05-10T12:38:35;2.78;;;1.98;;
8819;SDS011;4446;50.876;4.736;2023-05-10T12:41:03;1.50;;;1.40;;
8819;SDS011;4446;50.876;4.736;2023-05-10T12:43:36;1.75;;;1.60;;
8819;SDS011;4446;50.876;4.736;2023-05-10T12:46:04;1.80;;;1.70;;
8819;SDS011;4446;50.876;4.736;2023-05-10T12:48:32;1.80;;;1.70;;
8819;SDS011;4446;50.876;4.736;2023-05-10T12:51:00;1.85;;;1.75;;
8819;SDS011;4446;50.876;4.736;2023-05-10T12:53:27;1.80;;;1.70;;
8819;SDS011;4446;50.876;4.736;2023-05-10T12:55:54;1.80;;;1.70;;
8819;SDS011;4446;50.876;4.736;2023-05-10T12:58:21;1.52;;;1.42;;
8819;SDS011;4446;50.876;4.736;2023-05-10T13:00:50;1.77;;;1.67;;
8819;SDS011;4446;50.876;4.736;2023-05-10T13:03:18;1.73;;;1.60;;
8819;SDS011;4446;50.876;4.736;2023-05-10T13:05:45;1.30;;;1.20;;
8819;SDS011;4446;50.876;4.736;2023-05-10T13:08:12;1.60;;;1.30;;
8819;SDS011;4446;50.876;4.736;2023-05-10T13:10:39;1.80;;;1.70;;
8819;SDS011;4446;50.876;4.736;2023-05-10T13:13:06;1.40;;;1.30;;
8819;SDS011;4446;50.876;4.736;2023-05-10T13:15:33;1.75;;;1.30;;
8819;SDS011;4446;50.876;4.736;2023-05-10T13:18:02;1.58;;;1.27;;
8819;SDS011;4446;50.876;4.736;2023-05-10T13:20:29;1.40;;;1.30;;
8819;SDS011;4446;50.876;4.736;2023-05-10T13:22:56;1.70;;;1.60;;
8819;SDS011;4446;50.876;4.736;2023-05-10T13:25:23;2.03;;;1.80;;
8819;SDS011;4446;50.876;4.736;2023-05-10T13:27:50;1.52;;;1.42;;
8819;SDS011;4446;50.876;4.736;2023-05-10T13:30:18;1.77;;;1.67;;
8819;SDS011;4446;50.876;4.736;2023-05-10T13:32:45;1.55;;;1.45;;
8819;SDS011;4446;50.876;4.736;2023-05-10T13:35:14;1.73;;;1.50;;
8819;SDS011;4446;50.876;4.736;2023-05-10T13:37:41;1.65;;;1.45;;
8819;SDS011;4446;50.876;4.736;2023-05-10T13:40:08;1.70;;;1.60;;
8819;SDS011;4446;50.876;4.736;2023-05-10T13:42:36;2.08;;;1.70;;
8819;SDS011;4446;50.876;4.736;2023-05-10T13:45:04;1.63;;;1.52;;
8819;SDS011;4446;50.876;4.736;2023-05-10T13:47:31;1.65;;;1.40;;
8819;SDS011;4446;50.876;4.736;2023-05-10T13:49:58;1.60;;;1.50;;
8819;SDS011;4446;50.876;4.736;2023-05-10T13:52:27;1.70;;;1.60;;
8819;SDS011;4446;50.876;4.736;2023-05-10T13:54:54;1.60;;;1.50;;
8819;SDS011;4446;50.876;4.736;2023-05-10T13:57:21;1.75;;;1.65;;
8819;SDS011;4446;50.876;4.736;2023-05-10T13:59:49;2.00;;;1.75;;
8819;SDS011;4446;50.876;4.736;2023-05-10T14:02:16;1.92;;;1.63;;
8819;SDS011;4446;50.876;4.736;2023-05-10T14:04:43;2.05;;;1.80;;
8819;SDS011;4446;50.876;4.736;2023-05-10T14:07:10;3.30;;;1.88;;
8819;SDS011;4446;50.876;4.736;2023-05-10T14:09:38;2.38;;;1.60;;
8819;SDS011;4446;50.876;4.736;2023-05-10T14:12:05;1.70;;;1.60;;
8819;SDS011;4446;50.876;4.736;2023-05-10T14:14:32;1.80;;;1.70;;
8819;SDS011;4446;50.876;4.736;2023-05-10T14:16:59;1.65;;;1.45;;
8819;SDS011;4446;50.876;4.736;2023-05-10T14:19:28;1.90;;;1.60;;
8819;SDS011;4446;50.876;4.736;2023-05-10T14:21:57;2.83;;;1.60;;
8819;SDS011;4446;50.876;4.736;2023-05-10T14:24:24;1.52;;;1.42;;
8819;SDS011;4446;50.876;4.736;2023-05-10T14:26:53;2.20;;;1.50;;
8819;SDS011;4446;50.876;4.736;2023-05-10T14:29:19;1.73;;;1.45;;
8819;SDS011;4446;50.876;4.736;2023-05-10T14:31:47;3.78;;;1.88;;
8819;SDS011;4446;50.876;4.736;2023-05-10T14:34:14;2.10;;;1.88;;
8819;SDS011;4446;50.876;4.736;2023-05-10T14:36:41;2.80;;;2.00;;
8819;SDS011;4446;50.876;4.736;2023-05-10T14:39:08;2.20;;;2.00;;
8819;SDS011;4446;50.876;4.736;2023-05-10T14:41:37;2.45;;;1.90;;
8819;SDS011;4446;50.876;4.736;2023-05-10T14:44:07;2.25;;;1.80;;
8819;SDS011;4446;50.876;4.736;2023-05-10T14:46:35;2.65;;;2.28;;
8819;SDS011;4446;50.876;4.736;2023-05-10T14:49:02;2.72;;;2.30;;
8819;SDS011;4446;50.876;4.736;2023-05-10T14:51:29;2.78;;;2.20;;
8819;SDS011;4446;50.876;4.736;2023-05-10T14:53:56;2.90;;;2.30;;
8819;SDS011;4446;50.876;4.736;2023-05-10T14:56:23;3.55;;;2.22;;
8819;SDS011;4446;50.876;4.736;2023-05-10T14:58:51;3.03;;;2.20;;
8819;SDS011;4446;50.876;4.736;2023-05-10T15:01:19;2.70;;;2.38;;
8819;SDS011;4446;50.876;4.736;2023-05-10T15:03:46;3.38;;;2.15;;
8819;SDS011;4446;50.876;4.736;2023-05-10T15:06:15;3.00;;;2.30;;
8819;SDS011;4446;50.876;4.736;2023-05-10T15:08:49;2.80;;;2.40;;
8819;SDS011;4446;50.876;4.736;2023-05-10T15:11:16;2.63;;;2.22;;
8819;SDS011;4446;50.876;4.736;2023-05-10T15:13:45;2.22;;;1.92;;
8819;SDS011;4446;50.876;4.736;2023-05-10T15:16:14;2.75;;;2.50;;
8819;SDS011;4446;50.876;4.736;2023-05-10T15:18:43;4.05;;;2.78;;
8819;SDS011;4446;50.876;4.736;2023-05-10T15:21:10;3.25;;;2.33;;
8819;SDS011;4446;50.876;4.736;2023-05-10T15:23:37;3.15;;;2.65;;
8819;SDS011;4446;50.876;4.736;2023-05-10T15:26:04;2.33;;;2.10;;